sensor_id;sensor_type;location;lat;lon;timestamp;pressure;altitude;pressure_sealevel;temperature;humidity
9225;BME280;4647;48.072;11.616;2023-03-21T00:02:25;95478.16;;;7.61;74.75
9225;BME280;4647;48.072;11.616;2023-03-21T00:04:57;95483.16;;;7.73;74.34
9225;BME280;4647;48.072;11.616;2023-03-21T00:07:25;95475.84;;;7.66;74.68
9225;BME280;4647;48.072;11.616;2023-03-21T00:09:54;95475.06;;;7.73;74.46
9225;BME280;4647;48.072;11.616;2023-03-21T00:12:22;95469.69;;;7.66;74.68
9225;BME280;4647;48.072;11.616;2023-03-21T00:14:50;95470.47;;;7.70;74.60
9225;BME280;4647;48.072;11.616;2023-03-21T00:17:20;95470.47;;;7.70;74.39
9225;BME280;4647;48.072;11.616;2023-03-21T00:19:52;95465.84;;;7.70;74.60
9225;BME280;4647;48.072;11.616;2023-03-21T00:22:23;95457.34;;;7.72;74.54
9225;BME280;4647;48.072;11.616;2023-03-21T00:24:52;95457.75;;;7.81;74.21
9225;BME280;4647;48.072;11.616;2023-03-21T00:27:20;95463.91;;;7.75;74.51
9225;BME280;4647;48.072;11.616;2023-03-21T00:29:49;95465.84;;;7.85;73.93
9225;BME280;4647;48.072;11.616;2023-03-21T00:32:19;95457.34;;;7.86;74.05
9225;BME280;4647;48.072;11.616;2023-03-21T00:34:48;95448.50;;;7.82;74.22
9225;BME280;4647;48.072;11.616;2023-03-21T00:37:17;95453.88;;;7.86;74.27
9225;BME280;4647;48.072;11.616;2023-03-21T00:39:48;95451.19;;;7.86;74.20
9225;BME280;4647;48.072;11.616;2023-03-21T00:42:17;95450.41;;;7.89;74.07
9225;BME280;4647;48.072;11.616;2023-03-21T00:44:46;95445.41;;;7.91;73.96
9225;BME280;4647;48.072;11.616;2023-03-21T00:47:14;95445.75;;;8.00;73.68
9225;BME280;4647;48.072;11.616;2023-03-21T00:49:43;95440.75;;;8.06;73.68
9225;BME280;4647;48.072;11.616;2023-03-21T00:52:11;95445.00;;;7.99;73.78
9225;BME280;4647;48.072;11.616;2023-03-21T00:54:39;95433.03;;;7.97;74.10
9225;BME280;4647;48.072;11.616;2023-03-21T00:57:10;95447.28;;;8.01;73.87
9225;BME280;4647;48.072;11.616;2023-03-21T00:59:39;95436.09;;;8.02;74.20
9225;BME280;4647;48.072;11.616;2023-03-21T01:02:07;95439.56;;;8.03;74.00
9225;BME280;4647;48.072;11.616;2023-03-21T01:04:47;95432.63;;;8.16;73.26
9225;BME280;4647;48.072;11.616;2023-03-21T01:07:15;95436.03;;;8.27;72.46
9225;BME280;4647;48.072;11.616;2023-03-21T01:09:43;95430.28;;;8.29;72.59
9225;BME280;4647;48.072;11.616;2023-03-21T01:12:14;95425.63;;;8.26;72.75
9225;BME280;4647;48.072;11.616;2023-03-21T01:14:43;95426.44;;;8.23;72.86
9225;BME280;4647;48.072;11.616;2023-03-21T01:17:12;95426.03;;;8.21;72.90
9225;BME280;4647;48.072;11.616;2023-03-21T01:19:40;95426.84;;;8.14;73.55
9225;BME280;4647;48.072;11.616;2023-03-21T01:22:09;95424.16;;;8.14;73.49
9225;BME280;4647;48.072;11.616;2023-03-21T01:24:37;95422.19;;;8.18;73.08
9225;BME280;4647;48.072;11.616;2023-03-21T01:27:06;95419.53;;;8.15;73.25
9225;BME280;4647;48.072;11.616;2023-03-21T01:29:37;95419.16;;;8.06;73.48
9225;BME280;4647;48.072;11.616;2023-03-21T01:32:06;95415.69;;;8.05;73.69
9225;BME280;4647;48.072;11.616;2023-03-21T01:34:34;95411.03;;;8.13;73.22
9225;BME280;4647;48.072;11.616;2023-03-21T01:37:02;95412.56;;;8.17;73.20
9225;BME280;4647;48.072;11.616;2023-03-21T01:39:32;95417.19;;;8.17;73.25
9225;BME280;4647;48.072;11.616;2023-03-21T01:42:00;95409.47;;;8.19;73.20
9225;BME280;4647;48.072;11.616;2023-03-21T01:44:28;95406.75;;;8.22;73.27
9225;BME280;4647;48.072;11.616;2023-03-21T01:47:00;95406.38;;;8.31;72.73
9225;BME280;4647;48.072;11.616;2023-03-21T01:49:31;95403.66;;;8.31;72.39
9225;BME280;4647;48.072;11.616;2023-03-21T01:52:02;95400.19;;;8.27;72.94
9225;BME280;4647;48.072;11.616;2023-03-21T01:54:35;95393.66;;;8.24;73.30
9225;BME280;4647;48.072;11.616;2023-03-21T01:57:07;95390.56;;;8.26;73.09
9225;BME280;4647;48.072;11.616;2023-03-21T01:59:38;95386.69;;;8.27;73.16
9225;BME280;4647;48.072;11.616;2023-03-21T02:02:11;95383.59;;;8.39;72.76
9225;BME280;4647;48.072;11.616;2023-03-21T02:04:42;95389.41;;;8.30;72.95
9225;BME280;4647;48.072;11.616;2023-03-21T02:07:24;95387.84;;;8.33;72.78
9225;BME280;4647;48.072;11.616;2023-03-21T02:09:57;95386.31;;;8.32;72.73
9225;BME280;4647;48.072;11.616;2023-03-21T02:12:26;95383.66;;;8.14;73.52
9225;BME280;4647;48.072;11.616;2023-03-21T02:14:56;95393.75;;;7.92;74.46
9225;BME280;4647;48.072;11.616;2023-03-21T02:17:32;95389.47;;;8.02;73.97
9225;BME280;4647;48.072;11.616;2023-03-21T02:20:35;95384.84;;;8.13;73.41
9225;BME280;4647;48.072;11.616;2023-03-21T02:23:32;95384.41;;;8.18;73.20
9225;BME280;4647;48.072;11.616;2023-03-21T02:26:21;95382.09;;;8.24;72.79
9225;BME280;4647;48.072;11.616;2023-03-21T02:28:57;95388.25;;;8.21;73.23
9225;BME280;4647;48.072;11.616;2023-03-21T02:31:39;95390.19;;;8.24;72.88
9225;BME280;4647;48.072;11.616;2023-03-21T02:37:20;95387.19;;;7.93;74.00
9225;BME280;4647;48.072;11.616;2023-03-21T02:40:02;95388.72;;;7.94;74.11
9225;BME280;4647;48.072;11.616;2023-03-21T02:42:42;95392.56;;;8.04;73.45
9225;BME280;4647;48.072;11.616;2023-03-21T02:45:15;95395.66;;;7.99;73.38
9225;BME280;4647;48.072;11.616;2023-03-21T02:47:47;95390.25;;;8.02;72.93
9225;BME280;4647;48.072;11.616;2023-03-21T02:50:22;95393.38;;;7.87;73.62
9225;BME280;4647;48.072;11.616;2023-03-21T02:52:55;95386.84;;;7.81;74.03
9225;BME280;4647;48.072;11.616;2023-03-21T02:55:26;95384.16;;;7.81;74.02
9225;BME280;4647;48.072;11.616;2023-03-21T02:57:58;95383.75;;;7.79;73.71
9225;BME280;4647;48.072;11.616;2023-03-21T03:00:30;95384.16;;;7.74;74.15
9225;BME280;4647;48.072;11.616;2023-03-21T03:03:00;95386.47;;;7.82;73.55
9225;BME280;4647;48.072;11.616;2023-03-21T03:05:30;95392.25;;;7.84;73.42
9225;BME280;4647;48.072;11.616;2023-03-21T03:11:07;95394.16;;;7.84;73.55
9225;BME280;4647;48.072;11.616;2023-03-21T03:13:49;95390.31;;;7.85;73.65
9225;BME280;4647;48.072;11.616;2023-03-21T03:16:26;95386.47;;;7.82;73.86
9225;BME280;4647;48.072;11.616;2023-03-21T03:18:57;95383.75;;;7.86;73.76
9225;BME280;4647;48.072;11.616;2023-03-21T03:21:30;95381.09;;;7.68;74.60
9225;BME280;4647;48.072;11.616;2023-03-21T03:24:06;95375.69;;;7.68;74.92
9225;BME280;4647;48.072;11.616;2023-03-21T03:26:39;95366.06;;;7.70;74.37
9225;BME280;4647;48.072;11.616;2023-03-21T03:29:13;95379.91;;;7.87;74.35
9225;BME280;4647;48.072;11.616;2023-03-21T03:31:46;95386.47;;;7.86;74.28
9225;BME280;4647;48.072;11.616;2023-03-21T03:34:21;95377.97;;;7.80;74.57
9225;BME280;4647;48.072;11.616;2023-03-21T03:36:54;95382.59;;;7.87;74.38
9225;BME280;4647;48.072;11.616;2023-03-21T03:39:34;95377.59;;;7.89;74.08
9225;BME280;4647;48.072;11.616;2023-03-21T03:42:06;95372.56;;;7.87;74.62
9225;BME280;4647;48.072;11.616;2023-03-21T03:44:36;95374.50;;;7.87;74.43
9225;BME280;4647;48.072;11.616;2023-03-21T03:47:07;95373.38;;;7.74;75.08
9225;BME280;4647;48.072;11.616;2023-03-21T03:49:38;95359.13;;;7.66;74.95
9225;BME280;4647;48.072;11.616;2023-03-21T03:52:13;95367.97;;;7.77;75.23
9225;BME280;4647;48.072;11.616;2023-03-21T03:54:48;95368.75;;;7.74;75.47
9225;BME280;4647;48.072;11.616;2023-03-21T03:57:18;95370.69;;;7.81;75.13
9225;BME280;4647;48.072;11.616;2023-03-21T03:59:47;95368.75;;;7.81;75.25
9225;BME280;4647;48.072;11.616;2023-03-21T04:02:16;95364.88;;;7.79;75.47
9225;BME280;4647;48.072;11.616;2023-03-21T04:04:45;95341.44;;;7.51;75.70
9225;BME280;4647;48.072;11.616;2023-03-21T04:07:17;95371.03;;;7.76;75.54
9225;BME280;4647;48.072;11.616;2023-03-21T04:09:49;95371.81;;;7.76;75.57
9225;BME280;4647;48.072;11.616;2023-03-21T04:12:18;95376.44;;;7.86;75.11
9225;BME280;4647;48.072;11.616;2023-03-21T04:14:46;95376.44;;;7.83;75.31
9225;BME280;4647;48.072;11.616;2023-03-21T04:17:15;95376.06;;;7.81;75.30
9225;BME280;4647;48.072;11.616;2023-03-21T04:19:44;95374.13;;;7.81;75.42
9225;BME280;4647;48.072;11.616;2023-03-21T04:22:12;95366.03;;;7.78;75.43
9225;BME280;4647;48.072;11.616;2023-03-21T04:24:41;95372.97;;;7.75;75.68
9225;BME280;4647;48.072;11.616;2023-03-21T04:27:12;95366.41;;;7.76;75.72
9225;BME280;4647;48.072;11.616;2023-03-21T04:29:41;95375.31;;;7.69;76.03
9225;BME280;4647;48.072;11.616;2023-03-21T04:32:09;95368.72;;;7.78;75.53
9225;BME280;4647;48.072;11.616;2023-03-21T04:34:42;95371.81;;;7.73;75.93
9225;BME280;4647;48.072;11.616;2023-03-21T04:37:15;95361.81;;;7.73;75.76
9225;BME280;4647;48.072;11.616;2023-03-21T04:39:44;95359.13;;;7.69;75.94
9225;BME280;4647;48.072;11.616;2023-03-21T04:44:45;95368.72;;;7.78;75.62
9225;BME280;4647;48.072;11.616;2023-03-21T04:47:13;95363.72;;;7.76;75.63
9225;BME280;4647;48.072;11.616;2023-03-21T04:49:44;95362.19;;;7.75;75.63
9225;BME280;4647;48.072;11.616;2023-03-21T04:52:13;95364.91;;;7.68;76.14
9225;BME280;4647;48.072;11.616;2023-03-21T04:54:42;95363.72;;;7.76;75.81
9225;BME280;4647;48.072;11.616;2023-03-21T04:57:10;95366.03;;;7.74;75.87
9225;BME280;4647;48.072;11.616;2023-03-21T04:59:39;95349.50;;;7.68;75.99
9225;BME280;4647;48.072;11.616;2023-03-21T05:02:11;95346.06;;;7.61;76.17
9225;BME280;4647;48.072;11.616;2023-03-21T05:04:40;95362.97;;;7.72;75.90
9225;BME280;4647;48.072;11.616;2023-03-21T05:07:08;95358.75;;;7.67;76.13
9225;BME280;4647;48.072;11.616;2023-03-21T05:09:37;95361.47;;;7.64;76.16
9225;BME280;4647;48.072;11.616;2023-03-21T05:12:05;95344.13;;;7.54;76.35
9225;BME280;4647;48.072;11.616;2023-03-21T05:14:34;95347.59;;;7.62;75.70
9225;BME280;4647;48.072;11.616;2023-03-21T05:17:03;95362.59;;;7.74;75.22
9225;BME280;4647;48.072;11.616;2023-03-21T05:19:34;95360.66;;;7.74;75.30
9225;BME280;4647;48.072;11.616;2023-03-21T05:22:06;95363.75;;;7.73;75.64
9225;BME280;4647;48.072;11.616;2023-03-21T05:24:35;95356.03;;;7.71;75.59
9225;BME280;4647;48.072;11.616;2023-03-21T05:27:06;95352.59;;;7.63;76.14
9225;BME280;4647;48.072;11.616;2023-03-21T05:29:35;95352.59;;;7.67;76.04
9225;BME280;4647;48.072;11.616;2023-03-21T05:32:04;95361.03;;;7.73;76.15
9225;BME280;4647;48.072;11.616;2023-03-21T05:34:35;95360.25;;;7.86;75.51
9225;BME280;4647;48.072;11.616;2023-03-21T05:37:04;95363.28;;;7.95;74.91
9225;BME280;4647;48.072;11.616;2023-03-21T05:39:32;95330.22;;;7.81;74.46
9225;BME280;4647;48.072;11.616;2023-03-21T05:42:00;95356.31;;;8.12;74.20
9225;BME280;4647;48.072;11.616;2023-03-21T05:44:29;95353.25;;;8.07;74.38
9225;BME280;4647;48.072;11.616;2023-03-21T05:46:57;95351.31;;;8.04;74.25
9225;BME280;4647;48.072;11.616;2023-03-21T05:49:27;95308.63;;;7.84;73.79
9225;BME280;4647;48.072;11.616;2023-03-21T05:51:58;95358.22;;;8.15;74.03
9225;BME280;4647;48.072;11.616;2023-03-21T05:54:27;95360.97;;;8.08;74.20
9225;BME280;4647;48.072;11.616;2023-03-21T05:56:55;95334.06;;;7.83;74.40
9225;BME280;4647;48.072;11.616;2023-03-21T05:59:24;95359.75;;;8.16;74.11
9225;BME280;4647;48.072;11.616;2023-03-21T06:01:52;95339.75;;;8.03;73.42
9225;BME280;4647;48.072;11.616;2023-03-21T06:04:21;95345.94;;;8.00;73.80
9225;BME280;4647;48.072;11.616;2023-03-21T06:06:50;95379.00;;;8.36;73.26
9225;BME280;4647;48.072;11.616;2023-03-21T06:09:22;95343.94;;;8.18;73.04
9225;BME280;4647;48.072;11.616;2023-03-21T06:11:52;95377.78;;;8.44;72.95
9225;BME280;4647;48.072;11.616;2023-03-21T06:14:22;95365.50;;;8.36;72.76
9225;BME280;4647;48.072;11.616;2023-03-21T06:16:51;95374.22;;;8.61;72.17
9225;BME280;4647;48.072;11.616;2023-03-21T06:19:20;95352.28;;;8.56;71.84
9225;BME280;4647;48.072;11.616;2023-03-21T06:21:49;95369.13;;;8.78;71.30
9225;BME280;4647;48.072;11.616;2023-03-21T06:24:17;95354.84;;;8.81;70.87
9225;BME280;4647;48.072;11.616;2023-03-21T06:26:48;95381.69;;;9.06;70.73
9225;BME280;4647;48.072;11.616;2023-03-21T06:29:17;95375.03;;;9.17;70.30
9225;BME280;4647;48.072;11.616;2023-03-21T06:31:45;95379.13;;;9.36;69.68
9225;BME280;4647;48.072;11.616;2023-03-21T06:34:14;95380.38;;;9.28;69.12
9225;BME280;4647;48.072;11.616;2023-03-21T06:36:42;95385.56;;;9.05;69.94
9225;BME280;4647;48.072;11.616;2023-03-21T06:39:11;95384.00;;;9.07;69.90
9225;BME280;4647;48.072;11.616;2023-03-21T06:41:40;95381.06;;;9.36;68.80
9225;BME280;4647;48.072;11.616;2023-03-21T06:44:11;95367.00;;;9.55;68.12
9225;BME280;4647;48.072;11.616;2023-03-21T06:46:40;95379.16;;;9.77;67.57
9225;BME280;4647;48.072;11.616;2023-03-21T06:49:08;95387.88;;;9.96;66.59
9225;BME280;4647;48.072;11.616;2023-03-21T06:51:37;95388.78;;;9.82;67.05
9225;BME280;4647;48.072;11.616;2023-03-21T06:54:06;95388.97;;;10.02;66.49
9225;BME280;4647;48.072;11.616;2023-03-21T06:56:34;95389.53;;;10.20;66.00
9225;BME280;4647;48.072;11.616;2023-03-21T06:59:03;95393.28;;;10.33;65.93
9225;BME280;4647;48.072;11.616;2023-03-21T07:01:35;95392.66;;;10.19;66.16
9225;BME280;4647;48.072;11.616;2023-03-21T07:04:04;95393.19;;;10.03;66.70
9225;BME280;4647;48.072;11.616;2023-03-21T07:06:33;95382.75;;;10.05;66.41
9225;BME280;4647;48.072;11.616;2023-03-21T07:09:02;95364.75;;;10.25;65.47
9225;BME280;4647;48.072;11.616;2023-03-21T07:11:31;95384.03;;;10.61;64.53
9225;BME280;4647;48.072;11.616;2023-03-21T07:14:00;95388.09;;;10.76;64.13
9225;BME280;4647;48.072;11.616;2023-03-21T07:16:29;95392.56;;;10.90;64.19
9225;BME280;4647;48.072;11.616;2023-03-21T07:19:00;95386.50;;;10.79;64.04
9225;BME280;4647;48.072;11.616;2023-03-21T07:21:28;95381.50;;;11.04;62.95
9225;BME280;4647;48.072;11.616;2023-03-21T07:23:56;95393.97;;;11.25;62.08
9225;BME280;4647;48.072;11.616;2023-03-21T07:26:25;95391.75;;;11.20;62.20
9225;BME280;4647;48.072;11.616;2023-03-21T07:28:54;95395.44;;;11.30;61.94
9225;BME280;4647;48.072;11.616;2023-03-21T07:31:22;95373.09;;;11.22;61.65
9225;BME280;4647;48.072;11.616;2023-03-21T07:33:51;95392.75;;;11.30;61.43
9225;BME280;4647;48.072;11.616;2023-03-21T07:36:22;95367.97;;;11.28;61.64
9225;BME280;4647;48.072;11.616;2023-03-21T07:38:50;95388.19;;;11.23;61.50
9225;BME280;4647;48.072;11.616;2023-03-21T07:41:19;95401.91;;;11.40;61.75
9225;BME280;4647;48.072;11.616;2023-03-21T07:43:48;95386.91;;;11.55;60.74
9225;BME280;4647;48.072;11.616;2023-03-21T07:46:16;95396.13;;;11.61;60.80
9225;BME280;4647;48.072;11.616;2023-03-21T07:48:45;95404.06;;;11.25;61.21
9225;BME280;4647;48.072;11.616;2023-03-21T07:51:13;95398.06;;;11.37;61.03
9225;BME280;4647;48.072;11.616;2023-03-21T07:53:44;95392.00;;;11.76;60.29
9225;BME280;4647;48.072;11.616;2023-03-21T07:56:13;95393.13;;;11.79;59.95
9225;BME280;4647;48.072;11.616;2023-03-21T07:58:41;95401.88;;;11.90;59.40
9225;BME280;4647;48.072;11.616;2023-03-21T08:01:10;95393.47;;;11.81;59.90
9225;BME280;4647;48.072;11.616;2023-03-21T08:03:38;95393.84;;;11.83;59.54
9225;BME280;4647;48.072;11.616;2023-03-21T08:06:08;95386.41;;;11.63;60.43
9225;BME280;4647;48.072;11.616;2023-03-21T08:08:37;95396.00;;;12.15;59.14
9225;BME280;4647;48.072;11.616;2023-03-21T08:11:10;95400.59;;;11.48;59.90
9225;BME280;4647;48.072;11.616;2023-03-21T08:13:39;95363.03;;;11.46;59.79
9225;BME280;4647;48.072;11.616;2023-03-21T08:16:08;95403.94;;;10.78;62.42
9225;BME280;4647;48.072;11.616;2023-03-21T08:18:37;95395.09;;;11.78;59.76
9225;BME280;4647;48.072;11.616;2023-03-21T08:21:07;95371.53;;;12.15;57.90
9225;BME280;4647;48.072;11.616;2023-03-21T08:23:35;95392.44;;;12.38;57.69
9225;BME280;4647;48.072;11.616;2023-03-21T08:26:05;95400.41;;;11.85;58.98
9225;BME280;4647;48.072;11.616;2023-03-21T08:28:36;95389.56;;;11.35;60.82
9225;BME280;4647;48.072;11.616;2023-03-21T08:31:07;95401.06;;;12.13;58.73
9225;BME280;4647;48.072;11.616;2023-03-21T08:33:36;95374.72;;;12.29;56.88
9225;BME280;4647;48.072;11.616;2023-03-21T08:36:05;95396.59;;;12.82;55.91
9225;BME280;4647;48.072;11.616;2023-03-21T08:38:34;95393.97;;;12.78;56.08
9225;BME280;4647;48.072;11.616;2023-03-21T08:41:04;95387.38;;;13.12;55.64
9225;BME280;4647;48.072;11.616;2023-03-21T08:43:32;95389.91;;;12.86;55.41
9225;BME280;4647;48.072;11.616;2023-03-21T08:46:04;95389.09;;;13.06;55.00
9225;BME280;4647;48.072;11.616;2023-03-21T08:48:33;95386.66;;;12.36;56.64
9225;BME280;4647;48.072;11.616;2023-03-21T08:51:03;95389.91;;;12.86;55.31
9225;BME280;4647;48.072;11.616;2023-03-21T08:53:31;95391.53;;;13.36;53.83
9225;BME280;4647;48.072;11.616;2023-03-21T08:56:00;95393.88;;;12.82;54.92
9225;BME280;4647;48.072;11.616;2023-03-21T08:58:29;95389.09;;;12.50;55.81
9225;BME280;4647;48.072;11.616;2023-03-21T09:00:57;95396.94;;;12.84;54.83
9225;BME280;4647;48.072;11.616;2023-03-21T09:03:28;95395.38;;;13.03;54.59
9225;BME280;4647;48.072;11.616;2023-03-21T09:05:57;95385.81;;;13.63;52.17
9225;BME280;4647;48.072;11.616;2023-03-21T09:08:27;95385.97;;;13.89;50.97
9225;BME280;4647;48.072;11.616;2023-03-21T09:10:56;95381.13;;;14.38;49.74
9225;BME280;4647;48.072;11.616;2023-03-21T09:13:24;95384.06;;;14.47;48.79
9225;BME280;4647;48.072;11.616;2023-03-21T09:15:54;95384.31;;;14.36;49.25
9225;BME280;4647;48.072;11.616;2023-03-21T09:18:28;95389.75;;;14.07;49.99
9225;BME280;4647;48.072;11.616;2023-03-21T09:21:10;95377.19;;;14.26;49.06
9225;BME280;4647;48.072;11.616;2023-03-21T09:23:39;95373.88;;;13.90;49.45
9225;BME280;4647;48.072;11.616;2023-03-21T09:26:09;95369.72;;;13.85;49.57
9225;BME280;4647;48.072;11.616;2023-03-21T09:28:38;95372.28;;;13.76;49.48
9225;BME280;4647;48.072;11.616;2023-03-21T09:31:07;95374.59;;;14.06;49.56
9225;BME280;4647;48.072;11.616;2023-03-21T09:33:42;95365.56;;;13.64;49.10
9225;BME280;4647;48.072;11.616;2023-03-21T09:36:11;95371.28;;;14.44;48.03
9225;BME280;4647;48.072;11.616;2023-03-21T09:38:39;95364.75;;;14.25;48.84
9225;BME280;4647;48.072;11.616;2023-03-21T09:41:17;95360.22;;;14.89;46.85
9225;BME280;4647;48.072;11.616;2023-03-21T09:43:56;95361.19;;;14.83;47.45
9225;BME280;4647;48.072;11.616;2023-03-21T09:46:35;95371.16;;;15.02;47.01
9225;BME280;4647;48.072;11.616;2023-03-21T09:49:15;95371.25;;;15.11;46.30
9225;BME280;4647;48.072;11.616;2023-03-21T09:51:48;95372.41;;;14.01;48.85
9225;BME280;4647;48.072;11.616;2023-03-21T09:54:21;95369.41;;;13.96;49.70
9225;BME280;4647;48.072;11.616;2023-03-21T09:56:54;95368.81;;;14.62;48.82
9225;BME280;4647;48.072;11.616;2023-03-21T09:59:26;95374.63;;;14.90;48.40
9225;BME280;4647;48.072;11.616;2023-03-21T10:01:57;95367.66;;;15.40;47.30
9225;BME280;4647;48.072;11.616;2023-03-21T10:04:30;95377.16;;;15.22;46.01
9225;BME280;4647;48.072;11.616;2023-03-21T10:07:01;95368.28;;;15.69;45.31
9225;BME280;4647;48.072;11.616;2023-03-21T10:09:31;95352.31;;;14.53;46.91
9225;BME280;4647;48.072;11.616;2023-03-21T10:12:05;95360.88;;;15.31;45.41
9225;BME280;4647;48.072;11.616;2023-03-21T10:14:38;95363.66;;;15.79;45.27
9225;BME280;4647;48.072;11.616;2023-03-21T10:17:22;95361.38;;;16.12;43.02
9225;BME280;4647;48.072;11.616;2023-03-21T10:20:09;95341.66;;;15.95;42.66
9225;BME280;4647;48.072;11.616;2023-03-21T10:22:39;95363.75;;;16.22;43.34
9225;BME280;4647;48.072;11.616;2023-03-21T10:25:13;95353.72;;;16.07;44.08
9225;BME280;4647;48.072;11.616;2023-03-21T10:27:42;95328.34;;;15.24;44.36
9225;BME280;4647;48.072;11.616;2023-03-21T10:30:20;95340.66;;;15.67;44.01
9225;BME280;4647;48.072;11.616;2023-03-21T10:32:51;95348.91;;;15.16;45.09
9225;BME280;4647;48.072;11.616;2023-03-21T10:35:22;95342.88;;;15.94;43.75
9225;BME280;4647;48.072;11.616;2023-03-21T10:37:50;95338.50;;;16.40;42.97
9225;BME280;4647;48.072;11.616;2023-03-21T10:40:18;95330.44;;;16.37;43.22
9225;BME280;4647;48.072;11.616;2023-03-21T10:42:47;95262.25;;;14.44;45.85
9225;BME280;4647;48.072;11.616;2023-03-21T10:45:17;95329.00;;;15.28;45.11
9225;BME280;4647;48.072;11.616;2023-03-21T10:47:47;95325.72;;;15.93;44.27
9225;BME280;4647;48.072;11.616;2023-03-21T10:50:17;95327.78;;;15.42;44.94
9225;BME280;4647;48.072;11.616;2023-03-21T10:52:55;95331.31;;;14.79;46.64
9225;BME280;4647;48.072;11.616;2023-03-21T10:55:28;95327.25;;;15.09;46.13
9225;BME280;4647;48.072;11.616;2023-03-21T10:58:01;95322.16;;;14.31;48.01
9225;BME280;4647;48.072;11.616;2023-03-21T11:00:35;95325.75;;;15.08;46.76
9225;BME280;4647;48.072;11.616;2023-03-21T11:03:04;95292.94;;;15.46;45.23
9225;BME280;4647;48.072;11.616;2023-03-21T11:05:36;95313.84;;;16.09;43.18
9225;BME280;4647;48.072;11.616;2023-03-21T11:08:10;95309.50;;;16.21;43.67
9225;BME280;4647;48.072;11.616;2023-03-21T11:10:52;95313.16;;;15.83;44.15
9225;BME280;4647;48.072;11.616;2023-03-21T11:13:24;95314.19;;;15.04;46.15
9225;BME280;4647;48.072;11.616;2023-03-21T11:15:55;95308.19;;;15.69;45.22
9225;BME280;4647;48.072;11.616;2023-03-21T11:18:27;95312.63;;;15.41;45.58
9225;BME280;4647;48.072;11.616;2023-03-21T11:21:02;95314.34;;;15.95;44.89
9225;BME280;4647;48.072;11.616;2023-03-21T11:23:38;95304.53;;;16.07;43.53
9225;BME280;4647;48.072;11.616;2023-03-21T11:26:09;95305.06;;;15.45;43.66
9225;BME280;4647;48.072;11.616;2023-03-21T11:28:39;95296.56;;;15.43;45.14
9225;BME280;4647;48.072;11.616;2023-03-21T11:31:09;95291.19;;;16.09;43.41
9225;BME280;4647;48.072;11.616;2023-03-21T11:33:39;95291.84;;;16.13;42.30
9225;BME280;4647;48.072;11.616;2023-03-21T11:36:26;95295.25;;;16.04;42.65
9225;BME280;4647;48.072;11.616;2023-03-21T11:39:11;95284.09;;;16.11;43.20
9225;BME280;4647;48.072;11.616;2023-03-21T11:41:42;95281.78;;;15.66;44.11
9225;BME280;4647;48.072;11.616;2023-03-21T11:44:25;95276.69;;;15.30;44.85
9225;BME280;4647;48.072;11.616;2023-03-21T11:46:55;95274.97;;;15.23;44.53
9225;BME280;4647;48.072;11.616;2023-03-21T11:49:24;95268.03;;;14.97;45.04
9225;BME280;4647;48.072;11.616;2023-03-21T11:52:03;95269.38;;;15.40;44.20
9225;BME280;4647;48.072;11.616;2023-03-21T11:54:52;95254.84;;;15.77;44.61
9225;BME280;4647;48.072;11.616;2023-03-21T11:57:29;95229.63;;;15.73;44.68
9225;BME280;4647;48.072;11.616;2023-03-21T12:00:09;95240.53;;;15.39;44.33
9225;BME280;4647;48.072;11.616;2023-03-21T12:03:08;95238.34;;;15.33;45.45
9225;BME280;4647;48.072;11.616;2023-03-21T12:05:46;95243.31;;;15.13;45.33
9225;BME280;4647;48.072;11.616;2023-03-21T12:08:27;95224.44;;;15.53;44.56
9225;BME280;4647;48.072;11.616;2023-03-21T12:11:10;95222.91;;;15.52;44.33
9225;BME280;4647;48.072;11.616;2023-03-21T12:13:58;95221.78;;;15.84;43.53
9225;BME280;4647;48.072;11.616;2023-03-21T12:16:41;95211.06;;;15.90;43.04
9225;BME280;4647;48.072;11.616;2023-03-21T12:19:27;95211.66;;;15.63;43.60
9225;BME280;4647;48.072;11.616;2023-03-21T12:22:05;95209.34;;;15.83;43.67
9225;BME280;4647;48.072;11.616;2023-03-21T12:24:43;95207.91;;;14.88;44.61
9225;BME280;4647;48.072;11.616;2023-03-21T12:27:22;95209.22;;;15.65;43.92
9225;BME280;4647;48.072;11.616;2023-03-21T12:33:06;95203.47;;;15.50;43.88
9225;BME280;4647;48.072;11.616;2023-03-21T12:35:51;95193.00;;;15.49;42.49
9225;BME280;4647;48.072;11.616;2023-03-21T12:38:24;95192.00;;;15.77;41.99
9225;BME280;4647;48.072;11.616;2023-03-21T12:41:08;95197.19;;;15.84;41.11
9225;BME280;4647;48.072;11.616;2023-03-21T12:43:45;95199.47;;;15.42;41.83
9225;BME280;4647;48.072;11.616;2023-03-21T12:46:21;95189.88;;;16.03;39.25
9225;BME280;4647;48.072;11.616;2023-03-21T12:48:54;95196.00;;;16.38;38.56
9225;BME280;4647;48.072;11.616;2023-03-21T12:51:27;95190.31;;;16.64;38.90
9225;BME280;4647;48.072;11.616;2023-03-21T12:54:06;95189.16;;;16.74;38.22
9225;BME280;4647;48.072;11.616;2023-03-21T12:56:41;95186.72;;;16.05;37.91
9225;BME280;4647;48.072;11.616;2023-03-21T12:59:20;95176.53;;;16.05;38.09
9225;BME280;4647;48.072;11.616;2023-03-21T13:01:53;95169.75;;;16.10;36.82
9225;BME280;4647;48.072;11.616;2023-03-21T13:04:40;95174.03;;;16.20;37.04
9225;BME280;4647;48.072;11.616;2023-03-21T13:07:18;95167.25;;;16.03;37.19
9225;BME280;4647;48.072;11.616;2023-03-21T13:09:49;95154.19;;;16.78;36.18
9225;BME280;4647;48.072;11.616;2023-03-21T13:12:42;95153.66;;;17.38;35.78
9225;BME280;4647;48.072;11.616;2023-03-21T13:15:26;95145.75;;;17.31;36.60
9225;BME280;4647;48.072;11.616;2023-03-21T13:18:02;95148.19;;;17.29;36.89
9225;BME280;4647;48.072;11.616;2023-03-21T13:20:37;95153.97;;;17.22;36.58
9225;BME280;4647;48.072;11.616;2023-03-21T13:23:08;95143.75;;;16.85;36.72
9225;BME280;4647;48.072;11.616;2023-03-21T13:25:41;95142.69;;;16.83;36.44
9225;BME280;4647;48.072;11.616;2023-03-21T13:28:17;95140.88;;;17.16;36.64
9225;BME280;4647;48.072;11.616;2023-03-21T13:30:49;95131.41;;;18.33;35.38
9225;BME280;4647;48.072;11.616;2023-03-21T13:33:21;95126.78;;;18.48;33.53
9225;BME280;4647;48.072;11.616;2023-03-21T13:35:58;95127.91;;;18.89;32.74
9225;BME280;4647;48.072;11.616;2023-03-21T13:38:31;95128.69;;;18.90;32.63
9225;BME280;4647;48.072;11.616;2023-03-21T13:41:07;95126.91;;;18.45;32.26
9225;BME280;4647;48.072;11.616;2023-03-21T13:43:44;95129.28;;;18.61;32.96
9225;BME280;4647;48.072;11.616;2023-03-21T13:46:34;95122.50;;;18.47;32.18
9225;BME280;4647;48.072;11.616;2023-03-21T13:49:13;95129.88;;;17.99;34.27
9225;BME280;4647;48.072;11.616;2023-03-21T13:51:44;95116.28;;;18.37;32.08
9225;BME280;4647;48.072;11.616;2023-03-21T13:54:20;95123.41;;;18.11;31.92
9225;BME280;4647;48.072;11.616;2023-03-21T13:56:54;95120.94;;;18.22;32.35